createdAt,value
2023-01-31T00:01:14.218Z,4.20
2023-01-31T00:03:43.125Z,4.20
2023-01-31T00:06:14.052Z,4.20
2023-01-31T00:08:42.175Z,4.20
2023-01-31T00:11:10.362Z,4.10
2023-01-31T00:13:38.426Z,4.10
2023-01-31T00:16:07.115Z,4.10
2023-01-31T00:18:36.054Z,4.10
2023-01-31T00:21:08.162Z,4.00
2023-01-31T00:23:38.357Z,4.00
2023-01-31T00:26:10.422Z,4.00
2023-01-31T00:28:38.524Z,4.00
2023-01-31T00:31:06.799Z,4.10
2023-01-31T00:33:35.071Z,4.10
2023-01-31T00:36:04.474Z,4.10
2023-01-31T00:38:33.807Z,4.10
2023-01-31T00:41:03.981Z,4.10
2023-01-31T00:43:32.041Z,4.10
2023-01-31T00:46:00.331Z,4.20
2023-01-31T00:48:29.563Z,4.20
2023-01-31T00:50:57.552Z,4.20
2023-01-31T00:53:25.885Z,4.20
2023-01-31T00:55:54.708Z,4.20
2023-01-31T00:58:24.118Z,4.30
2023-01-31T01:00:52.246Z,4.20
2023-01-31T01:03:20.274Z,4.30
2023-01-31T01:05:48.298Z,4.30
2023-01-31T01:08:16.245Z,4.30
2023-01-31T01:10:44.224Z,4.20
2023-01-31T01:13:12.167Z,4.20
2023-01-31T01:15:41.513Z,4.20
2023-01-31T01:18:09.515Z,4.20
2023-01-31T01:20:39.456Z,4.20
2023-01-31T01:23:10.314Z,4.20
2023-01-31T01:25:42.757Z,4.20
2023-01-31T01:28:10.797Z,4.20
2023-01-31T01:30:38.840Z,4.20
2023-01-31T01:33:09.545Z,4.20
2023-01-31T01:35:37.500Z,4.20
2023-01-31T01:38:05.476Z,4.20
2023-01-31T01:40:36.963Z,4.20
2023-01-31T01:43:05.181Z,4.20
2023-01-31T01:45:33.345Z,4.20
2023-01-31T01:48:04.548Z,4.20
2023-01-31T01:50:36.073Z,4.20
2023-01-31T01:53:06.205Z,4.20
2023-01-31T01:55:37.769Z,4.20
2023-01-31T01:58:09.108Z,4.20
2023-01-31T02:00:37.572Z,4.20
2023-01-31T02:03:08.039Z,4.20
2023-01-31T02:05:39.047Z,4.30
2023-01-31T02:08:11.226Z,4.40
2023-01-31T02:10:46.822Z,4.30
2023-01-31T02:13:17.761Z,4.20
2023-01-31T02:15:45.771Z,4.30
2023-01-31T02:18:15.950Z,4.20
2023-01-31T02:21:06.410Z,4.20
2023-01-31T02:24:04.159Z,4.20
2023-01-31T02:26:54.706Z,4.20
2023-01-31T02:29:33.631Z,4.20
2023-01-31T02:32:17.555Z,4.20
2023-01-31T02:34:51.379Z,4.10
2023-01-31T02:37:25.658Z,4.10
2023-01-31T02:39:57.873Z,4.00
2023-01-31T02:42:30.964Z,4.00
2023-01-31T02:45:00.585Z,4.00
2023-01-31T02:47:33.607Z,3.90
2023-01-31T02:50:04.901Z,3.90
2023-01-31T02:52:36.635Z,3.90
2023-01-31T02:55:26.897Z,3.90
2023-01-31T02:57:56.577Z,3.90
2023-01-31T03:00:28.203Z,3.90
2023-01-31T03:02:58.729Z,3.90
2023-01-31T03:05:26.778Z,3.80
2023-01-31T03:07:56.150Z,3.80
2023-01-31T03:10:33.409Z,3.80
2023-01-31T03:13:12.139Z,3.80
2023-01-31T03:16:05.172Z,3.80
2023-01-31T03:18:39.233Z,3.70
2023-01-31T03:21:10.708Z,3.70
2023-01-31T03:23:40.061Z,3.70
2023-01-31T03:26:08.522Z,3.70
2023-01-31T03:28:40.144Z,3.70
2023-01-31T03:31:11.904Z,3.70
2023-01-31T03:33:42.339Z,3.90
2023-01-31T03:36:19.570Z,3.60
2023-01-31T03:38:56.143Z,3.60
2023-01-31T03:41:26.477Z,3.60
2023-01-31T03:43:59.859Z,3.60
2023-01-31T03:46:31.311Z,3.60
2023-01-31T03:49:01.667Z,3.60
2023-01-31T03:51:32.650Z,3.60
2023-01-31T03:54:02.994Z,3.60
2023-01-31T03:56:35.958Z,3.60
2023-01-31T03:59:06.911Z,3.60
2023-01-31T04:01:39.708Z,3.60
2023-01-31T04:04:12.851Z,3.60
2023-01-31T04:06:43.980Z,3.60
2023-01-31T04:09:12.102Z,3.60
2023-01-31T04:11:41.309Z,3.60
2023-01-31T04:14:16.178Z,3.60
2023-01-31T04:16:44.430Z,3.60
2023-01-31T04:19:13.779Z,3.50
2023-01-31T04:21:41.753Z,3.50
2023-01-31T04:24:10.498Z,3.60
2023-01-31T04:26:38.565Z,3.60
2023-01-31T04:29:08.618Z,3.50
2023-01-31T04:31:39.743Z,3.50
2023-01-31T04:34:07.779Z,3.50
2023-01-31T04:36:39.480Z,3.50
2023-01-31T04:39:07.422Z,3.60
2023-01-31T04:41:35.375Z,3.50
2023-01-31T04:44:03.387Z,3.60
2023-01-31T04:46:36.149Z,3.60
2023-01-31T04:49:04.656Z,3.60
2023-01-31T04:51:33.021Z,3.60
2023-01-31T04:54:02.406Z,3.60
2023-01-31T04:56:34.814Z,3.60
2023-01-31T04:59:03.128Z,3.70
2023-01-31T05:01:31.767Z,3.60
2023-01-31T05:03:59.817Z,3.70
2023-01-31T05:06:27.897Z,3.70
2023-01-31T05:08:55.857Z,3.70
2023-01-31T05:11:25.152Z,3.60
2023-01-31T05:13:55.657Z,3.60
2023-01-31T05:16:23.772Z,3.60
2023-01-31T05:18:54.395Z,3.60
2023-01-31T05:21:22.385Z,3.60
2023-01-31T05:23:50.436Z,3.60
2023-01-31T05:26:18.440Z,3.60
2023-01-31T05:28:47.835Z,3.70
2023-01-31T05:31:16.039Z,3.70
2023-01-31T05:33:48.876Z,3.70
2023-01-31T05:36:16.851Z,3.80
2023-01-31T05:38:44.842Z,3.80
2023-01-31T05:41:17.181Z,3.80
2023-01-31T05:43:45.226Z,3.80
2023-01-31T05:46:16.876Z,3.90
2023-01-31T05:48:44.866Z,3.90
2023-01-31T05:51:14.032Z,3.90
2023-01-31T05:53:42.017Z,4.00
2023-01-31T05:56:16.528Z,4.00
2023-01-31T05:58:44.542Z,4.10
2023-01-31T06:01:16.921Z,4.10
2023-01-31T06:03:45.192Z,4.10
2023-01-31T06:06:13.171Z,4.20
2023-01-31T06:08:42.051Z,4.20
2023-01-31T06:11:11.106Z,4.20
2023-01-31T06:13:39.368Z,4.20
2023-01-31T06:16:08.004Z,4.30
2023-01-31T06:18:37.717Z,4.30
2023-01-31T06:21:05.843Z,4.30
2023-01-31T06:23:34.443Z,4.30
2023-01-31T06:26:02.765Z,4.30
2023-01-31T06:28:31.950Z,4.40
2023-01-31T06:31:00.028Z,4.40
2023-01-31T06:33:42.103Z,4.40
2023-01-31T06:36:14.564Z,4.40
2023-01-31T06:38:43.473Z,4.50
2023-01-31T06:41:13.386Z,4.50
2023-01-31T06:43:41.402Z,4.50
2023-01-31T06:46:09.393Z,4.50
2023-01-31T06:48:37.382Z,4.50
2023-01-31T06:51:07.872Z,4.60
2023-01-31T06:53:37.231Z,4.60
2023-01-31T06:56:05.572Z,4.60
2023-01-31T06:58:34.562Z,4.60
2023-01-31T07:01:05.460Z,4.60
2023-01-31T07:03:33.613Z,4.60
2023-01-31T07:06:01.725Z,4.60
2023-01-31T07:08:33.214Z,4.60
2023-01-31T07:11:04.717Z,4.70
2023-01-31T07:13:36.896Z,4.70
2023-01-31T07:16:07.442Z,4.70
2023-01-31T07:18:35.605Z,4.70
2023-01-31T07:21:03.614Z,4.70
2023-01-31T07:23:31.580Z,4.70
2023-01-31T07:26:02.139Z,4.70
2023-01-31T07:28:31.585Z,4.70
2023-01-31T07:31:04.954Z,4.70
2023-01-31T07:33:33.405Z,4.70
2023-01-31T07:36:10.965Z,4.70
2023-01-31T07:38:38.950Z,4.80
2023-01-31T07:41:08.521Z,4.80
2023-01-31T07:43:38.705Z,4.80
2023-01-31T07:46:08.963Z,4.80
2023-01-31T07:48:39.798Z,4.80
2023-01-31T07:51:08.292Z,4.80
2023-01-31T07:53:38.990Z,4.80
2023-01-31T07:56:07.725Z,4.90
2023-01-31T07:58:36.162Z,4.90
2023-01-31T08:01:23.384Z,4.90
2023-01-31T08:03:51.699Z,4.90
2023-01-31T08:06:19.850Z,4.90
2023-01-31T08:08:47.905Z,4.90
2023-01-31T08:11:15.941Z,4.90
2023-01-31T08:13:44.055Z,4.90
2023-01-31T08:16:13.536Z,4.90
2023-01-31T08:18:41.680Z,5.00
2023-01-31T08:21:11.727Z,5.00
2023-01-31T08:23:41.101Z,5.00
2023-01-31T08:26:10.969Z,5.00
2023-01-31T08:28:41.581Z,5.00
2023-01-31T08:31:14.461Z,5.00
2023-01-31T08:33:42.572Z,5.00
2023-01-31T08:36:11.588Z,5.10
2023-01-31T08:38:39.751Z,5.00
2023-01-31T08:41:07.864Z,5.10
2023-01-31T08:43:53.692Z,5.10
2023-01-31T08:46:25.682Z,5.10
2023-01-31T08:48:53.733Z,5.10
2023-01-31T08:51:21.716Z,5.10
2023-01-31T08:53:49.832Z,5.20
2023-01-31T08:56:21.418Z,5.20
2023-01-31T08:58:49.945Z,5.20
2023-01-31T09:01:19.397Z,5.20
2023-01-31T09:03:50.565Z,5.60
2023-01-31T09:06:20.585Z,5.30
2023-01-31T09:08:48.744Z,5.30
2023-01-31T09:11:19.334Z,5.30
2023-01-31T09:13:49.605Z,5.30
2023-01-31T09:16:21.107Z,5.40
2023-01-31T09:18:51.875Z,5.40
2023-01-31T09:21:20.815Z,5.40
2023-01-31T09:23:49.699Z,5.40
2023-01-31T09:26:20.608Z,5.40
2023-01-31T09:28:50.931Z,5.50
2023-01-31T09:31:20.407Z,5.50
2023-01-31T09:33:48.834Z,5.50
2023-01-31T09:36:19.222Z,5.50
2023-01-31T09:38:47.460Z,5.50
2023-01-31T09:41:20.434Z,5.50
2023-01-31T09:43:51.939Z,5.60
2023-01-31T09:46:21.236Z,5.60
2023-01-31T09:48:54.241Z,5.60
2023-01-31T09:51:23.804Z,5.60
2023-01-31T09:53:51.911Z,5.60
2023-01-31T09:56:24.647Z,5.60
2023-01-31T09:58:56.700Z,5.60
2023-01-31T10:01:26.573Z,5.70
2023-01-31T10:04:09.312Z,5.70
2023-01-31T10:06:44.439Z,5.70
2023-01-31T10:09:16.213Z,5.70
2023-01-31T10:11:45.837Z,5.70
2023-01-31T10:14:20.387Z,5.80
2023-01-31T10:16:55.548Z,5.80
2023-01-31T10:19:25.434Z,5.80
2023-01-31T10:21:58.550Z,5.80
2023-01-31T10:24:29.468Z,5.80
2023-01-31T10:27:01.545Z,5.80
2023-01-31T10:29:30.924Z,5.80
2023-01-31T10:32:00.928Z,5.90
2023-01-31T10:34:30.360Z,5.90
2023-01-31T10:37:02.345Z,5.90
2023-01-31T10:39:32.543Z,5.90
2023-01-31T10:42:06.179Z,5.90
2023-01-31T10:44:40.771Z,6.00
2023-01-31T10:47:12.108Z,6.00
2023-01-31T10:49:41.336Z,6.00
2023-01-31T10:52:17.757Z,6.00
2023-01-31T10:54:55.169Z,6.00
2023-01-31T10:57:23.622Z,6.00
2023-01-31T10:59:52.302Z,6.10
2023-01-31T11:02:22.117Z,6.10
2023-01-31T11:04:52.356Z,6.10
2023-01-31T11:07:22.015Z,6.10
2023-01-31T11:09:51.744Z,6.10
2023-01-31T11:12:19.841Z,6.10
2023-01-31T11:15:04.440Z,6.10
2023-01-31T11:17:32.739Z,6.10
2023-01-31T11:20:00.899Z,6.10
2023-01-31T11:22:32.867Z,6.10
2023-01-31T11:25:04.105Z,6.10
2023-01-31T11:27:34.458Z,6.10
2023-01-31T11:30:04.279Z,6.10
2023-01-31T11:32:34.349Z,6.10
2023-01-31T11:35:04.862Z,6.10
2023-01-31T11:37:35.044Z,6.10
2023-01-31T11:40:03.902Z,6.10
2023-01-31T11:42:32.008Z,6.10
2023-01-31T11:45:01.465Z,6.10
2023-01-31T11:47:35.140Z,6.10
2023-01-31T11:50:03.633Z,6.10
2023-01-31T11:52:32.341Z,6.10
2023-01-31T11:55:03.773Z,6.10
2023-01-31T11:57:33.071Z,6.20
2023-01-31T12:00:02.203Z,6.10
2023-01-31T12:02:36.594Z,6.20
2023-01-31T12:05:09.657Z,6.20
2023-01-31T12:07:47.337Z,6.20
2023-01-31T12:10:28.830Z,6.20
2023-01-31T12:13:12.554Z,6.20
2023-01-31T12:15:52.184Z,6.20
2023-01-31T12:18:23.151Z,6.20
2023-01-31T12:20:54.372Z,6.20
2023-01-31T12:23:28.171Z,6.30
2023-01-31T12:26:06.134Z,6.30
2023-01-31T12:28:38.566Z,6.30
2023-01-31T12:31:12.032Z,6.30
2023-01-31T12:33:46.394Z,6.30
2023-01-31T12:36:22.953Z,6.30
2023-01-31T12:39:05.282Z,6.40
2023-01-31T12:41:36.375Z,6.40
2023-01-31T12:44:16.162Z,6.40
2023-01-31T12:46:57.712Z,6.40
2023-01-31T12:49:42.497Z,6.40
2023-01-31T12:52:14.229Z,6.60
2023-01-31T12:54:51.679Z,6.50
2023-01-31T12:57:25.649Z,6.50
2023-01-31T12:59:57.552Z,6.60
2023-01-31T13:02:33.652Z,6.60
2023-01-31T13:05:05.217Z,6.60
2023-01-31T13:07:35.477Z,6.60
2023-01-31T13:10:06.014Z,6.70
2023-01-31T13:12:36.399Z,6.70
2023-01-31T13:15:06.428Z,6.70
2023-01-31T13:17:38.980Z,6.70
2023-01-31T13:20:15.771Z,6.70
2023-01-31T13:22:46.539Z,6.70
2023-01-31T13:25:17.078Z,6.70
2023-01-31T13:27:50.401Z,6.70
2023-01-31T13:30:21.631Z,6.80
2023-01-31T13:32:50.606Z,6.80
2023-01-31T13:35:20.105Z,6.80
2023-01-31T13:37:49.642Z,6.80
2023-01-31T13:40:19.908Z,6.80
2023-01-31T13:42:50.267Z,6.80
2023-01-31T13:45:22.261Z,6.80
2023-01-31T13:47:52.397Z,6.80
2023-01-31T13:50:26.017Z,6.90
2023-01-31T13:52:57.234Z,6.90
2023-01-31T13:55:29.684Z,6.90
2023-01-31T13:58:00.316Z,6.90
2023-01-31T14:00:35.412Z,7.00
2023-01-31T14:03:04.538Z,7.00
2023-01-31T14:05:52.473Z,7.00
2023-01-31T14:08:30.546Z,7.00
2023-01-31T14:10:59.010Z,7.00
2023-01-31T14:13:39.978Z,7.10
2023-01-31T14:16:26.710Z,7.10
2023-01-31T14:18:54.688Z,7.10
2023-01-31T14:21:57.897Z,7.10
2023-01-31T14:24:47.127Z,7.10
2023-01-31T14:27:18.520Z,7.20
2023-01-31T14:29:52.556Z,7.20
2023-01-31T14:32:27.300Z,7.20
2023-01-31T14:34:55.697Z,7.20
2023-01-31T14:37:28.463Z,7.20
2023-01-31T14:40:14.805Z,7.30
2023-01-31T14:42:53.926Z,7.30
2023-01-31T14:45:39.954Z,7.30
2023-01-31T14:48:16.118Z,7.30
2023-01-31T14:50:54.436Z,7.40
2023-01-31T14:53:51.224Z,7.40
2023-01-31T14:56:26.886Z,7.50
2023-01-31T14:58:55.157Z,7.50
2023-01-31T15:01:24.124Z,7.50
2023-01-31T15:03:55.471Z,7.50
2023-01-31T15:06:28.911Z,7.50
2023-01-31T15:09:15.613Z,7.60
2023-01-31T15:11:43.787Z,7.60
2023-01-31T15:14:34.309Z,7.60
2023-01-31T15:17:05.683Z,7.60
2023-01-31T15:19:41.743Z,7.60
2023-01-31T15:22:10.717Z,7.60
2023-01-31T15:24:39.772Z,7.60
2023-01-31T15:27:13.759Z,7.60
2023-01-31T15:29:52.255Z,7.60
2023-01-31T15:32:22.188Z,7.60
2023-01-31T15:34:55.826Z,7.60
2023-01-31T15:37:26.626Z,7.60
2023-01-31T15:39:56.660Z,7.60
2023-01-31T15:42:25.787Z,7.60
2023-01-31T15:45:08.627Z,7.60
2023-01-31T15:47:36.785Z,7.60
2023-01-31T15:50:15.331Z,7.60
2023-01-31T15:52:45.305Z,7.60
2023-01-31T15:55:14.051Z,7.60
2023-01-31T15:57:43.616Z,7.60
2023-01-31T16:00:18.432Z,7.60
2023-01-31T16:02:47.471Z,7.60
2023-01-31T16:05:20.641Z,7.50
2023-01-31T16:07:49.377Z,7.50
2023-01-31T16:10:17.730Z,7.50
2023-01-31T16:12:46.941Z,7.50
2023-01-31T16:15:15.869Z,7.50
2023-01-31T16:17:44.560Z,7.40
2023-01-31T16:20:27.384Z,7.40
2023-01-31T16:22:59.823Z,7.40
2023-01-31T16:25:28.181Z,7.30
2023-01-31T16:28:02.357Z,7.30
2023-01-31T16:30:31.262Z,7.30
2023-01-31T16:33:01.211Z,7.30
2023-01-31T16:35:30.518Z,7.30
2023-01-31T16:38:03.926Z,7.30
2023-01-31T16:40:34.634Z,7.20
2023-01-31T16:43:12.464Z,7.20
2023-01-31T16:45:50.926Z,7.20
2023-01-31T16:48:24.173Z,7.20
2023-01-31T16:50:53.706Z,7.10
2023-01-31T16:53:27.386Z,7.10
2023-01-31T16:56:13.814Z,7.10
2023-01-31T16:58:46.303Z,7.10
2023-01-31T17:01:14.818Z,7.10
2023-01-31T17:03:43.096Z,7.00
2023-01-31T17:06:19.336Z,7.00
2023-01-31T17:08:48.934Z,7.00
2023-01-31T17:11:34.181Z,6.90
2023-01-31T17:14:06.625Z,6.90
2023-01-31T17:16:34.661Z,6.90
2023-01-31T17:19:02.638Z,6.80
2023-01-31T17:21:33.207Z,6.80
2023-01-31T17:24:02.539Z,6.80
2023-01-31T17:26:31.722Z,6.70
2023-01-31T17:29:02.715Z,6.70
2023-01-31T17:31:31.624Z,6.70
2023-01-31T17:33:59.739Z,6.70
2023-01-31T17:36:27.753Z,6.60
2023-01-31T17:38:56.117Z,6.60
2023-01-31T17:41:25.716Z,6.60
2023-01-31T17:43:53.722Z,6.50
2023-01-31T17:46:21.859Z,6.50
2023-01-31T17:48:49.892Z,6.50
2023-01-31T17:51:17.877Z,6.50
2023-01-31T17:53:50.169Z,6.50
2023-01-31T17:56:18.733Z,6.50
2023-01-31T17:58:49.337Z,6.40
2023-01-31T18:01:17.424Z,6.40
2023-01-31T18:03:45.444Z,6.50
2023-01-31T18:06:13.663Z,6.40
2023-01-31T18:08:41.670Z,6.40
2023-01-31T18:11:10.399Z,6.30
2023-01-31T18:13:39.055Z,6.30
2023-01-31T18:16:09.486Z,6.30
2023-01-31T18:18:40.394Z,6.30
2023-01-31T18:21:09.616Z,6.30
2023-01-31T18:23:37.612Z,6.30
2023-01-31T18:26:06.229Z,6.30
2023-01-31T18:28:34.469Z,6.30
2023-01-31T18:31:03.196Z,6.30
2023-01-31T18:33:33.277Z,6.20
2023-01-31T18:36:02.132Z,6.30
2023-01-31T18:38:30.515Z,6.30
2023-01-31T18:41:00.151Z,6.30
2023-01-31T18:43:30.499Z,6.20
2023-01-31T18:45:58.535Z,6.20
2023-01-31T18:48:26.507Z,6.20
2023-01-31T18:50:55.910Z,6.20
2023-01-31T18:53:23.880Z,6.20
2023-01-31T18:55:59.354Z,6.20
2023-01-31T18:58:30.656Z,6.20
2023-01-31T19:01:05.442Z,6.20
2023-01-31T19:03:33.613Z,6.20
2023-01-31T19:06:05.729Z,6.20
2023-01-31T19:08:33.717Z,6.20
2023-01-31T19:11:10.360Z,6.20
2023-01-31T19:13:38.750Z,6.20
2023-01-31T19:16:07.831Z,6.20
2023-01-31T19:18:36.177Z,6.20
2023-01-31T19:21:14.024Z,6.20
2023-01-31T19:23:42.098Z,6.20
2023-01-31T19:26:10.797Z,6.20
2023-01-31T19:28:39.338Z,6.20
2023-01-31T19:31:07.932Z,6.10
2023-01-31T19:33:35.949Z,6.20
2023-01-31T19:36:10.748Z,6.10
2023-01-31T19:38:38.795Z,6.20
2023-01-31T19:41:07.819Z,6.20
2023-01-31T19:43:35.782Z,6.10
2023-01-31T19:46:03.950Z,6.10
2023-01-31T19:48:32.247Z,6.10
2023-01-31T19:51:00.274Z,6.10
2023-01-31T19:53:30.754Z,6.20
2023-01-31T19:55:58.698Z,6.20
2023-01-31T19:58:31.134Z,6.20
2023-01-31T20:00:59.646Z,6.20
2023-01-31T20:03:27.661Z,6.20
2023-01-31T20:05:55.679Z,6.20
2023-01-31T20:08:25.013Z,6.20
2023-01-31T20:10:56.297Z,6.20
2023-01-31T20:13:24.280Z,6.20
2023-01-31T20:15:57.611Z,6.20
2023-01-31T20:18:26.307Z,6.20
2023-01-31T20:20:54.787Z,6.20
2023-01-31T20:23:22.828Z,6.10
2023-01-31T20:25:51.188Z,6.10
2023-01-31T20:28:21.053Z,6.10
2023-01-31T20:30:49.409Z,6.10
2023-01-31T20:33:17.996Z,6.10
2023-01-31T20:35:46.086Z,6.10
2023-01-31T20:38:15.510Z,6.10
2023-01-31T20:40:49.204Z,6.10
2023-01-31T20:43:17.461Z,6.00
2023-01-31T20:45:47.071Z,6.00
2023-01-31T20:48:15.838Z,6.10
2023-01-31T20:50:44.035Z,6.00
2023-01-31T20:53:17.430Z,6.00
2023-01-31T20:55:46.504Z,6.10
2023-01-31T20:58:14.472Z,6.10
2023-01-31T21:00:42.467Z,6.00
2023-01-31T21:03:11.941Z,6.00
2023-01-31T21:05:39.996Z,6.00
2023-01-31T21:08:08.011Z,6.00
2023-01-31T21:10:36.088Z,6.00
2023-01-31T21:13:04.096Z,6.10
2023-01-31T21:15:32.470Z,6.00
2023-01-31T21:18:00.514Z,6.00
2023-01-31T21:20:29.869Z,6.00
2023-01-31T21:22:57.995Z,6.00
2023-01-31T21:25:31.254Z,6.00
2023-01-31T21:27:59.245Z,6.00
2023-01-31T21:30:27.201Z,6.00
2023-01-31T21:32:55.303Z,6.00
2023-01-31T21:35:23.596Z,6.00
2023-01-31T21:37:53.153Z,6.00
2023-01-31T21:40:21.558Z,6.00
2023-01-31T21:42:50.343Z,5.90
2023-01-31T21:45:38.474Z,6.00
2023-01-31T21:48:26.930Z,6.00
2023-01-31T21:50:55.418Z,6.00
2023-01-31T21:53:26.367Z,6.00
2023-01-31T21:56:01.143Z,6.00
2023-01-31T21:58:31.874Z,6.00
2023-01-31T22:01:03.469Z,5.90
2023-01-31T22:03:31.428Z,5.90
2023-01-31T22:06:03.226Z,5.90
2023-01-31T22:08:32.726Z,5.90
2023-01-31T22:11:01.581Z,5.90
2023-01-31T22:13:29.613Z,5.90
2023-01-31T22:16:01.413Z,6.10
2023-01-31T22:18:30.214Z,5.90
2023-01-31T22:21:02.263Z,5.90
2023-01-31T22:23:30.494Z,5.90
2023-01-31T22:26:02.672Z,5.90
2023-01-31T22:28:31.183Z,5.80
2023-01-31T22:30:59.800Z,5.80
2023-01-31T22:33:27.866Z,5.80
2023-01-31T22:35:55.878Z,5.80
2023-01-31T22:38:26.134Z,5.80
2023-01-31T22:40:57.147Z,5.80
2023-01-31T22:43:26.844Z,5.70
2023-01-31T22:45:55.412Z,5.70
2023-01-31T22:48:24.844Z,5.70
2023-01-31T22:50:56.758Z,5.70
2023-01-31T22:53:25.359Z,5.70
2023-01-31T22:55:53.564Z,5.70
2023-01-31T22:58:23.263Z,5.70
2023-01-31T23:00:52.641Z,5.60
2023-01-31T23:03:20.730Z,5.70
2023-01-31T23:05:48.757Z,5.60
2023-01-31T23:08:17.224Z,5.60
2023-01-31T23:10:46.848Z,5.60
2023-01-31T23:13:14.833Z,5.60
2023-01-31T23:15:42.843Z,5.60
2023-01-31T23:18:15.697Z,5.60
2023-01-31T23:20:43.687Z,5.50
2023-01-31T23:23:11.650Z,5.60
2023-01-31T23:25:39.789Z,5.50
2023-01-31T23:28:07.761Z,5.60
2023-01-31T23:30:35.788Z,5.60
2023-01-31T23:33:03.943Z,5.60
2023-01-31T23:35:33.327Z,5.60
2023-01-31T23:38:01.315Z,5.60
2023-01-31T23:40:29.334Z,5.70
2023-01-31T23:42:58.007Z,5.60
2023-01-31T23:45:25.975Z,5.70
2023-01-31T23:47:53.995Z,5.70
2023-01-31T23:50:22.365Z,5.70
2023-01-31T23:52:54.252Z,5.70
2023-01-31T23:55:23.159Z,5.80
2023-01-31T23:57:51.344Z,5.80
